sensor_id;sensor_type;location;lat;lon;timestamp;temperature;humidity
75621;DHT22;64574;48.506;-2.750;2023-01-08T00:01:41;8.20;72.20
75621;DHT22;64574;48.506;-2.750;2023-01-08T00:04:07;8.20;72.20
75621;DHT22;64574;48.506;-2.750;2023-01-08T00:06:32;8.20;72.60
75621;DHT22;64574;48.506;-2.750;2023-01-08T00:08:58;8.20;72.60
75621;DHT22;64574;48.506;-2.750;2023-01-08T00:11:24;8.10;73.00
75621;DHT22;64574;48.506;-2.750;2023-01-08T00:13:49;8.00;73.30
75621;DHT22;64574;48.506;-2.750;2023-01-08T00:16:16;8.10;73.50
75621;DHT22;64574;48.506;-2.750;2023-01-08T00:18:43;8.00;72.30
75621;DHT22;64574;48.506;-2.750;2023-01-08T00:21:09;8.00;72.60
75621;DHT22;64574;48.506;-2.750;2023-01-08T00:23:35;8.00;73.00
75621;DHT22;64574;48.506;-2.750;2023-01-08T00:26:05;7.90;73.20
75621;DHT22;64574;48.506;-2.750;2023-01-08T00:28:32;7.80;73.50
75621;DHT22;64574;48.506;-2.750;2023-01-08T00:30:58;7.90;73.90
75621;DHT22;64574;48.506;-2.750;2023-01-08T00:33:23;8.00;73.40
75621;DHT22;64574;48.506;-2.750;2023-01-08T00:35:49;8.00;73.50
75621;DHT22;64574;48.506;-2.750;2023-01-08T00:38:15;7.90;73.80
75621;DHT22;64574;48.506;-2.750;2023-01-08T00:40:41;7.90;74.10
75621;DHT22;64574;48.506;-2.750;2023-01-08T00:43:07;7.80;74.50
75621;DHT22;64574;48.506;-2.750;2023-01-08T00:45:33;7.80;74.50
75621;DHT22;64574;48.506;-2.750;2023-01-08T00:47:59;7.80;74.20
75621;DHT22;64574;48.506;-2.750;2023-01-08T00:50:24;7.80;74.40
75621;DHT22;64574;48.506;-2.750;2023-01-08T00:52:50;7.80;74.30
75621;DHT22;64574;48.506;-2.750;2023-01-08T00:55:16;7.80;73.90
75621;DHT22;64574;48.506;-2.750;2023-01-08T00:57:42;7.80;73.70
75621;DHT22;64574;48.506;-2.750;2023-01-08T01:00:11;7.80;73.80
75621;DHT22;64574;48.506;-2.750;2023-01-08T01:02:37;7.80;73.90
75621;DHT22;64574;48.506;-2.750;2023-01-08T01:05:04;7.80;73.90
75621;DHT22;64574;48.506;-2.750;2023-01-08T01:07:30;7.80;73.70
75621;DHT22;64574;48.506;-2.750;2023-01-08T01:09:57;7.80;73.40
75621;DHT22;64574;48.506;-2.750;2023-01-08T01:12:23;7.80;72.80
75621;DHT22;64574;48.506;-2.750;2023-01-08T01:14:49;7.70;73.20
75621;DHT22;64574;48.506;-2.750;2023-01-08T01:17:14;7.80;72.80
75621;DHT22;64574;48.506;-2.750;2023-01-08T01:19:40;7.70;72.80
75621;DHT22;64574;48.506;-2.750;2023-01-08T01:22:06;7.60;72.90
75621;DHT22;64574;48.506;-2.750;2023-01-08T01:24:32;7.60;72.80
75621;DHT22;64574;48.506;-2.750;2023-01-08T01:26:57;7.60;72.60
75621;DHT22;64574;48.506;-2.750;2023-01-08T01:29:23;7.50;73.00
75621;DHT22;64574;48.506;-2.750;2023-01-08T01:31:49;7.60;72.70
75621;DHT22;64574;48.506;-2.750;2023-01-08T01:34:15;7.60;72.60
75621;DHT22;64574;48.506;-2.750;2023-01-08T01:36:41;7.60;72.60
75621;DHT22;64574;48.506;-2.750;2023-01-08T01:39:06;7.50;72.80
75621;DHT22;64574;48.506;-2.750;2023-01-08T01:41:43;7.50;73.00
75621;DHT22;64574;48.506;-2.750;2023-01-08T01:50:11;7.50;72.80
75621;DHT22;64574;48.506;-2.750;2023-01-08T01:53:02;7.50;72.90
75621;DHT22;64574;48.506;-2.750;2023-01-08T01:55:27;7.50;72.80
75621;DHT22;64574;48.506;-2.750;2023-01-08T02:00:32;7.50;73.00
75621;DHT22;64574;48.506;-2.750;2023-01-08T02:02:58;7.50;73.10
75621;DHT22;64574;48.506;-2.750;2023-01-08T02:05:28;7.50;72.90
75621;DHT22;64574;48.506;-2.750;2023-01-08T02:08:05;7.50;72.80
75621;DHT22;64574;48.506;-2.750;2023-01-08T02:13:21;7.40;73.00
75621;DHT22;64574;48.506;-2.750;2023-01-08T02:15:57;7.40;73.30
75621;DHT22;64574;48.506;-2.750;2023-01-08T02:18:33;7.50;73.00
75621;DHT22;64574;48.506;-2.750;2023-01-08T02:21:02;7.50;73.30
75621;DHT22;64574;48.506;-2.750;2023-01-08T02:23:33;7.50;73.20
75621;DHT22;64574;48.506;-2.750;2023-01-08T02:28:29;7.50;73.30
75621;DHT22;64574;48.506;-2.750;2023-01-08T02:30:58;7.50;73.50
75621;DHT22;64574;48.506;-2.750;2023-01-08T02:33:27;7.50;73.50
75621;DHT22;64574;48.506;-2.750;2023-01-08T02:41:51;7.50;73.50
75621;DHT22;64574;48.506;-2.750;2023-01-08T02:45:07;7.40;74.10
75621;DHT22;64574;48.506;-2.750;2023-01-08T02:47:11;7.40;74.40
75621;DHT22;64574;48.506;-2.750;2023-01-08T02:49:41;7.50;74.30
75621;DHT22;64574;48.506;-2.750;2023-01-08T02:52:07;7.50;74.70
75621;DHT22;64574;48.506;-2.750;2023-01-08T02:54:35;7.50;74.50
75621;DHT22;64574;48.506;-2.750;2023-01-08T02:57:05;7.50;74.70
75621;DHT22;64574;48.506;-2.750;2023-01-08T02:59:33;7.50;74.70
75621;DHT22;64574;48.506;-2.750;2023-01-08T03:02:01;7.40;75.00
75621;DHT22;64574;48.506;-2.750;2023-01-08T03:04:27;7.50;75.00
75621;DHT22;64574;48.506;-2.750;2023-01-08T03:06:56;7.50;74.70
75621;DHT22;64574;48.506;-2.750;2023-01-08T03:09:22;7.50;74.70
75621;DHT22;64574;48.506;-2.750;2023-01-08T03:12:24;7.50;74.70
75621;DHT22;64574;48.506;-2.750;2023-01-08T03:15:06;7.50;74.90
75621;DHT22;64574;48.506;-2.750;2023-01-08T03:17:35;7.50;74.70
75621;DHT22;64574;48.506;-2.750;2023-01-08T03:20:06;7.50;74.50
75621;DHT22;64574;48.506;-2.750;2023-01-08T03:22:36;7.50;74.70
75621;DHT22;64574;48.506;-2.750;2023-01-08T03:25:04;7.50;74.50
75621;DHT22;64574;48.506;-2.750;2023-01-08T03:27:32;7.50;74.30
75621;DHT22;64574;48.506;-2.750;2023-01-08T03:30:03;7.50;74.50
75621;DHT22;64574;48.506;-2.750;2023-01-08T03:32:30;7.50;74.40
75621;DHT22;64574;48.506;-2.750;2023-01-08T03:34:58;7.50;74.40
75621;DHT22;64574;48.506;-2.750;2023-01-08T03:37:28;7.50;74.60
75621;DHT22;64574;48.506;-2.750;2023-01-08T03:40:10;7.50;74.40
75621;DHT22;64574;48.506;-2.750;2023-01-08T03:42:37;7.50;74.60
75621;DHT22;64574;48.506;-2.750;2023-01-08T03:45:03;7.40;74.70
75621;DHT22;64574;48.506;-2.750;2023-01-08T03:47:30;7.50;74.60
75621;DHT22;64574;48.506;-2.750;2023-01-08T03:49:56;7.50;74.50
75621;DHT22;64574;48.506;-2.750;2023-01-08T03:52:29;7.50;74.80
75621;DHT22;64574;48.506;-2.750;2023-01-08T03:54:55;7.50;74.70
75621;DHT22;64574;48.506;-2.750;2023-01-08T03:57:21;7.50;74.80
75621;DHT22;64574;48.506;-2.750;2023-01-08T03:59:47;7.50;74.70
75621;DHT22;64574;48.506;-2.750;2023-01-08T04:02:13;7.50;74.60
75621;DHT22;64574;48.506;-2.750;2023-01-08T04:04:39;7.50;74.80
75621;DHT22;64574;48.506;-2.750;2023-01-08T04:07:05;7.50;75.00
75621;DHT22;64574;48.506;-2.750;2023-01-08T04:09:31;7.50;75.10
75621;DHT22;64574;48.506;-2.750;2023-01-08T04:11:57;7.50;75.10
75621;DHT22;64574;48.506;-2.750;2023-01-08T04:14:22;7.40;75.50
75621;DHT22;64574;48.506;-2.750;2023-01-08T04:16:48;7.50;75.50
75621;DHT22;64574;48.506;-2.750;2023-01-08T04:19:14;7.50;75.60
75621;DHT22;64574;48.506;-2.750;2023-01-08T04:21:39;7.40;75.50
75621;DHT22;64574;48.506;-2.750;2023-01-08T04:24:06;7.40;75.80
75621;DHT22;64574;48.506;-2.750;2023-01-08T04:26:31;7.40;75.90
75621;DHT22;64574;48.506;-2.750;2023-01-08T04:28:57;7.40;75.90
75621;DHT22;64574;48.506;-2.750;2023-01-08T04:31:23;7.50;76.00
75621;DHT22;64574;48.506;-2.750;2023-01-08T04:33:48;7.50;75.60
75621;DHT22;64574;48.506;-2.750;2023-01-08T04:36:14;7.40;75.70
75621;DHT22;64574;48.506;-2.750;2023-01-08T04:38:40;7.50;75.60
75621;DHT22;64574;48.506;-2.750;2023-01-08T04:41:06;7.50;75.50
75621;DHT22;64574;48.506;-2.750;2023-01-08T04:43:32;7.40;75.50
75621;DHT22;64574;48.506;-2.750;2023-01-08T04:45:59;7.40;75.30
75621;DHT22;64574;48.506;-2.750;2023-01-08T04:48:25;7.50;75.20
75621;DHT22;64574;48.506;-2.750;2023-01-08T04:50:51;7.50;74.90
75621;DHT22;64574;48.506;-2.750;2023-01-08T04:53:16;7.50;74.90
75621;DHT22;64574;48.506;-2.750;2023-01-08T04:55:42;7.50;75.00
75621;DHT22;64574;48.506;-2.750;2023-01-08T04:58:08;7.50;75.00
75621;DHT22;64574;48.506;-2.750;2023-01-08T05:00:33;7.50;75.40
75621;DHT22;64574;48.506;-2.750;2023-01-08T05:02:59;7.50;75.30
75621;DHT22;64574;48.506;-2.750;2023-01-08T05:05:24;7.50;75.50
75621;DHT22;64574;48.506;-2.750;2023-01-08T05:07:50;7.50;75.70
75621;DHT22;64574;48.506;-2.750;2023-01-08T05:10:16;7.50;75.70
75621;DHT22;64574;48.506;-2.750;2023-01-08T05:12:42;7.40;76.00
75621;DHT22;64574;48.506;-2.750;2023-01-08T05:15:08;7.40;76.20
75621;DHT22;64574;48.506;-2.750;2023-01-08T05:17:34;7.40;76.20
75621;DHT22;64574;48.506;-2.750;2023-01-08T05:19:59;7.40;76.40
75621;DHT22;64574;48.506;-2.750;2023-01-08T05:22:25;7.40;76.40
75621;DHT22;64574;48.506;-2.750;2023-01-08T05:24:50;7.40;76.80
75621;DHT22;64574;48.506;-2.750;2023-01-08T05:27:16;7.40;76.70
75621;DHT22;64574;48.506;-2.750;2023-01-08T05:29:41;7.40;76.70
75621;DHT22;64574;48.506;-2.750;2023-01-08T05:32:14;7.40;76.80
75621;DHT22;64574;48.506;-2.750;2023-01-08T05:34:40;7.50;76.80
75621;DHT22;64574;48.506;-2.750;2023-01-08T05:37:06;7.50;76.80
75621;DHT22;64574;48.506;-2.750;2023-01-08T05:39:31;7.40;76.90
75621;DHT22;64574;48.506;-2.750;2023-01-08T05:41:57;7.50;76.90
75621;DHT22;64574;48.506;-2.750;2023-01-08T05:44:22;7.50;76.90
75621;DHT22;64574;48.506;-2.750;2023-01-08T05:46:48;7.40;77.10
75621;DHT22;64574;48.506;-2.750;2023-01-08T05:49:14;7.50;77.00
75621;DHT22;64574;48.506;-2.750;2023-01-08T05:51:39;7.50;76.90
75621;DHT22;64574;48.506;-2.750;2023-01-08T05:54:05;7.40;77.20
75621;DHT22;64574;48.506;-2.750;2023-01-08T05:56:30;7.40;77.50
75621;DHT22;64574;48.506;-2.750;2023-01-08T05:58:56;7.50;77.20
75621;DHT22;64574;48.506;-2.750;2023-01-08T06:01:22;7.40;77.30
75621;DHT22;64574;48.506;-2.750;2023-01-08T06:03:47;7.40;77.20
75621;DHT22;64574;48.506;-2.750;2023-01-08T06:06:13;7.40;77.30
75621;DHT22;64574;48.506;-2.750;2023-01-08T06:08:40;7.50;77.20
75621;DHT22;64574;48.506;-2.750;2023-01-08T06:11:07;7.40;77.40
75621;DHT22;64574;48.506;-2.750;2023-01-08T06:13:34;7.40;77.30
75621;DHT22;64574;48.506;-2.750;2023-01-08T06:16:00;7.40;77.20
75621;DHT22;64574;48.506;-2.750;2023-01-08T06:18:27;7.40;77.50
75621;DHT22;64574;48.506;-2.750;2023-01-08T06:20:54;7.40;77.60
75621;DHT22;64574;48.506;-2.750;2023-01-08T06:23:19;7.40;77.80
75621;DHT22;64574;48.506;-2.750;2023-01-08T06:25:57;7.30;77.90
75621;DHT22;64574;48.506;-2.750;2023-01-08T06:28:23;7.40;77.80
75621;DHT22;64574;48.506;-2.750;2023-01-08T06:30:49;7.20;78.00
75621;DHT22;64574;48.506;-2.750;2023-01-08T06:33:15;7.20;78.30
75621;DHT22;64574;48.506;-2.750;2023-01-08T06:35:40;7.30;78.00
75621;DHT22;64574;48.506;-2.750;2023-01-08T06:38:06;7.30;78.00
75621;DHT22;64574;48.506;-2.750;2023-01-08T06:40:32;7.40;78.00
75621;DHT22;64574;48.506;-2.750;2023-01-08T06:43:04;7.20;78.20
75621;DHT22;64574;48.506;-2.750;2023-01-08T06:45:31;7.30;78.20
75621;DHT22;64574;48.506;-2.750;2023-01-08T06:48:03;7.20;78.10
75621;DHT22;64574;48.506;-2.750;2023-01-08T06:50:30;7.20;78.00
75621;DHT22;64574;48.506;-2.750;2023-01-08T06:52:56;7.20;78.10
75621;DHT22;64574;48.506;-2.750;2023-01-08T06:55:23;7.20;77.90
75621;DHT22;64574;48.506;-2.750;2023-01-08T06:57:55;7.20;77.80
75621;DHT22;64574;48.506;-2.750;2023-01-08T07:00:21;7.20;77.50
75621;DHT22;64574;48.506;-2.750;2023-01-08T07:02:52;7.20;77.10
75621;DHT22;64574;48.506;-2.750;2023-01-08T07:05:18;7.30;76.60
75621;DHT22;64574;48.506;-2.750;2023-01-08T07:07:44;7.30;76.40
75621;DHT22;64574;48.506;-2.750;2023-01-08T07:10:10;7.30;76.20
75621;DHT22;64574;48.506;-2.750;2023-01-08T07:12:36;7.30;76.30
75621;DHT22;64574;48.506;-2.750;2023-01-08T07:15:02;7.30;76.10
75621;DHT22;64574;48.506;-2.750;2023-01-08T07:17:27;7.30;76.20
75621;DHT22;64574;48.506;-2.750;2023-01-08T07:19:53;7.30;76.30
75621;DHT22;64574;48.506;-2.750;2023-01-08T07:22:19;7.40;76.60
75621;DHT22;64574;48.506;-2.750;2023-01-08T07:24:45;7.40;76.90
75621;DHT22;64574;48.506;-2.750;2023-01-08T07:27:11;7.40;77.10
75621;DHT22;64574;48.506;-2.750;2023-01-08T07:29:36;7.30;77.60
75621;DHT22;64574;48.506;-2.750;2023-01-08T07:32:02;7.30;77.80
75621;DHT22;64574;48.506;-2.750;2023-01-08T07:34:28;7.20;78.40
75621;DHT22;64574;48.506;-2.750;2023-01-08T07:36:53;7.20;78.60
75621;DHT22;64574;48.506;-2.750;2023-01-08T07:39:19;7.20;78.90
75621;DHT22;64574;48.506;-2.750;2023-01-08T07:41:44;7.20;78.70
75621;DHT22;64574;48.506;-2.750;2023-01-08T07:44:10;7.20;79.00
75621;DHT22;64574;48.506;-2.750;2023-01-08T07:46:36;7.40;79.30
75621;DHT22;64574;48.506;-2.750;2023-01-08T07:49:02;7.30;79.00
75621;DHT22;64574;48.506;-2.750;2023-01-08T07:51:27;7.40;79.20
75621;DHT22;64574;48.506;-2.750;2023-01-08T07:53:54;7.30;79.30
75621;DHT22;64574;48.506;-2.750;2023-01-08T07:56:22;7.30;79.30
75621;DHT22;64574;48.506;-2.750;2023-01-08T07:58:47;7.30;79.50
75621;DHT22;64574;48.506;-2.750;2023-01-08T08:01:13;7.20;79.50
75621;DHT22;64574;48.506;-2.750;2023-01-08T08:03:39;7.40;79.50
75621;DHT22;64574;48.506;-2.750;2023-01-08T08:06:05;7.40;79.40
75621;DHT22;64574;48.506;-2.750;2023-01-08T08:08:31;7.40;79.30
75621;DHT22;64574;48.506;-2.750;2023-01-08T08:10:57;7.50;79.30
75621;DHT22;64574;48.506;-2.750;2023-01-08T08:13:22;7.40;79.30
75621;DHT22;64574;48.506;-2.750;2023-01-08T08:15:48;7.40;79.50
75621;DHT22;64574;48.506;-2.750;2023-01-08T08:18:14;7.50;79.50
75621;DHT22;64574;48.506;-2.750;2023-01-08T08:20:39;7.40;79.30
75621;DHT22;64574;48.506;-2.750;2023-01-08T08:23:10;7.40;79.40
75621;DHT22;64574;48.506;-2.750;2023-01-08T08:25:37;7.40;79.50
75621;DHT22;64574;48.506;-2.750;2023-01-08T08:28:03;7.40;79.30
75621;DHT22;64574;48.506;-2.750;2023-01-08T08:30:30;7.40;79.10
75621;DHT22;64574;48.506;-2.750;2023-01-08T08:32:58;7.40;79.20
75621;DHT22;64574;48.506;-2.750;2023-01-08T08:35:28;7.50;79.00
75621;DHT22;64574;48.506;-2.750;2023-01-08T08:37:54;7.50;78.50
75621;DHT22;64574;48.506;-2.750;2023-01-08T08:40:20;7.40;78.60
75621;DHT22;64574;48.506;-2.750;2023-01-08T08:42:46;7.40;78.50
75621;DHT22;64574;48.506;-2.750;2023-01-08T08:45:12;7.40;78.40
75621;DHT22;64574;48.506;-2.750;2023-01-08T08:47:38;7.40;78.50
75621;DHT22;64574;48.506;-2.750;2023-01-08T08:50:04;7.40;78.60
75621;DHT22;64574;48.506;-2.750;2023-01-08T08:52:31;7.40;78.60
75621;DHT22;64574;48.506;-2.750;2023-01-08T08:54:57;7.50;78.80
75621;DHT22;64574;48.506;-2.750;2023-01-08T08:57:24;7.50;78.70
75621;DHT22;64574;48.506;-2.750;2023-01-08T08:59:49;7.50;78.90
75621;DHT22;64574;48.506;-2.750;2023-01-08T09:02:15;7.40;79.00
75621;DHT22;64574;48.506;-2.750;2023-01-08T09:04:41;7.50;79.20
75621;DHT22;64574;48.506;-2.750;2023-01-08T09:07:06;7.50;79.10
75621;DHT22;64574;48.506;-2.750;2023-01-08T09:09:32;7.50;79.10
75621;DHT22;64574;48.506;-2.750;2023-01-08T09:11:57;7.60;79.10
75621;DHT22;64574;48.506;-2.750;2023-01-08T09:14:23;7.60;78.80
75621;DHT22;64574;48.506;-2.750;2023-01-08T09:16:49;7.60;78.90
75621;DHT22;64574;48.506;-2.750;2023-01-08T09:19:15;7.60;78.90
75621;DHT22;64574;48.506;-2.750;2023-01-08T09:21:40;7.60;79.10
75621;DHT22;64574;48.506;-2.750;2023-01-08T09:24:06;7.70;79.10
75621;DHT22;64574;48.506;-2.750;2023-01-08T09:26:32;7.80;79.00
75621;DHT22;64574;48.506;-2.750;2023-01-08T09:28:58;7.80;79.00
75621;DHT22;64574;48.506;-2.750;2023-01-08T09:31:24;7.80;78.90
75621;DHT22;64574;48.506;-2.750;2023-01-08T09:33:50;7.80;78.90
75621;DHT22;64574;48.506;-2.750;2023-01-08T09:36:16;7.90;78.90
75621;DHT22;64574;48.506;-2.750;2023-01-08T09:38:42;7.80;79.00
75621;DHT22;64574;48.506;-2.750;2023-01-08T09:41:21;7.80;78.80
75621;DHT22;64574;48.506;-2.750;2023-01-08T09:43:50;7.90;78.70
75621;DHT22;64574;48.506;-2.750;2023-01-08T09:46:18;8.00;77.80
75621;DHT22;64574;48.506;-2.750;2023-01-08T09:48:47;8.00;77.10
75621;DHT22;64574;48.506;-2.750;2023-01-08T09:51:15;8.00;76.90
75621;DHT22;64574;48.506;-2.750;2023-01-08T09:53:42;8.00;75.90
75621;DHT22;64574;48.506;-2.750;2023-01-08T09:56:17;8.00;75.60
75621;DHT22;64574;48.506;-2.750;2023-01-08T09:58:52;8.10;74.80
75621;DHT22;64574;48.506;-2.750;2023-01-08T10:01:23;8.10;74.50
75621;DHT22;64574;48.506;-2.750;2023-01-08T10:04:08;8.10;73.90
75621;DHT22;64574;48.506;-2.750;2023-01-08T10:06:35;8.10;73.80
75621;DHT22;64574;48.506;-2.750;2023-01-08T10:09:01;8.10;73.80
75621;DHT22;64574;48.506;-2.750;2023-01-08T10:11:32;8.10;73.80
75621;DHT22;64574;48.506;-2.750;2023-01-08T10:13:59;8.10;74.00
75621;DHT22;64574;48.506;-2.750;2023-01-08T10:16:28;8.10;74.30
75621;DHT22;64574;48.506;-2.750;2023-01-08T10:18:55;8.10;74.60
75621;DHT22;64574;48.506;-2.750;2023-01-08T10:21:25;8.10;74.90
75621;DHT22;64574;48.506;-2.750;2023-01-08T10:23:53;8.20;75.10
75621;DHT22;64574;48.506;-2.750;2023-01-08T10:26:45;8.20;75.10
75621;DHT22;64574;48.506;-2.750;2023-01-08T10:29:19;8.20;75.10
75621;DHT22;64574;48.506;-2.750;2023-01-08T10:31:55;8.20;75.40
75621;DHT22;64574;48.506;-2.750;2023-01-08T10:34:49;8.20;75.40
75621;DHT22;64574;48.506;-2.750;2023-01-08T10:37:27;8.30;75.20
75621;DHT22;64574;48.506;-2.750;2023-01-08T10:39:58;8.30;75.00
75621;DHT22;64574;48.506;-2.750;2023-01-08T10:42:25;8.30;75.20
75621;DHT22;64574;48.506;-2.750;2023-01-08T10:44:59;8.40;75.20
75621;DHT22;64574;48.506;-2.750;2023-01-08T10:47:28;8.40;75.20
75621;DHT22;64574;48.506;-2.750;2023-01-08T10:49:54;8.50;74.90
75621;DHT22;64574;48.506;-2.750;2023-01-08T10:52:30;8.50;75.20
75621;DHT22;64574;48.506;-2.750;2023-01-08T10:55:09;8.60;74.50
75621;DHT22;64574;48.506;-2.750;2023-01-08T10:57:35;8.60;74.50
75621;DHT22;64574;48.506;-2.750;2023-01-08T11:00:00;8.80;73.80
75621;DHT22;64574;48.506;-2.750;2023-01-08T11:02:35;8.80;73.40
75621;DHT22;64574;48.506;-2.750;2023-01-08T11:05:03;8.90;73.10
75621;DHT22;64574;48.506;-2.750;2023-01-08T11:07:29;9.00;72.40
75621;DHT22;64574;48.506;-2.750;2023-01-08T11:09:56;9.00;72.30
75621;DHT22;64574;48.506;-2.750;2023-01-08T11:14:55;9.20;71.20
75621;DHT22;64574;48.506;-2.750;2023-01-08T11:17:23;9.20;71.20
75621;DHT22;64574;48.506;-2.750;2023-01-08T11:19:50;9.20;71.50
75621;DHT22;64574;48.506;-2.750;2023-01-08T11:22:23;9.20;71.70
75621;DHT22;64574;48.506;-2.750;2023-01-08T11:24:50;9.20;71.90
75621;DHT22;64574;48.506;-2.750;2023-01-08T11:27:38;9.20;72.30
75621;DHT22;64574;48.506;-2.750;2023-01-08T11:32:53;9.20;72.70
75621;DHT22;64574;48.506;-2.750;2023-01-08T11:35:32;9.10;72.50
75621;DHT22;64574;48.506;-2.750;2023-01-08T11:38:01;9.10;73.10
75621;DHT22;64574;48.506;-2.750;2023-01-08T11:43:30;9.00;73.30
75621;DHT22;64574;48.506;-2.750;2023-01-08T11:59:52;9.20;73.50
75621;DHT22;64574;48.506;-2.750;2023-01-08T12:02:34;9.20;73.60
75621;DHT22;64574;48.506;-2.750;2023-01-08T12:05:26;9.20;73.70
75621;DHT22;64574;48.506;-2.750;2023-01-08T12:07:58;9.30;72.90
75621;DHT22;64574;48.506;-2.750;2023-01-08T12:16:37;9.00;71.80
75621;DHT22;64574;48.506;-2.750;2023-01-08T12:28:16;8.80;74.30
75621;DHT22;64574;48.506;-2.750;2023-01-08T12:31:07;8.80;74.90
75621;DHT22;64574;48.506;-2.750;2023-01-08T12:33:41;8.90;75.10
75621;DHT22;64574;48.506;-2.750;2023-01-08T12:36:11;9.00;75.30
75621;DHT22;64574;48.506;-2.750;2023-01-08T12:38:42;9.00;76.10
75621;DHT22;64574;48.506;-2.750;2023-01-08T12:41:15;9.20;75.90
75621;DHT22;64574;48.506;-2.750;2023-01-08T12:43:56;9.30;76.20
75621;DHT22;64574;48.506;-2.750;2023-01-08T12:46:26;9.40;75.70
75621;DHT22;64574;48.506;-2.750;2023-01-08T12:48:53;9.40;74.80
75621;DHT22;64574;48.506;-2.750;2023-01-08T12:54:01;9.40;74.30
75621;DHT22;64574;48.506;-2.750;2023-01-08T12:56:52;9.40;73.90
75621;DHT22;64574;48.506;-2.750;2023-01-08T12:59:40;9.40;73.70
75621;DHT22;64574;48.506;-2.750;2023-01-08T13:04:42;9.40;72.80
75621;DHT22;64574;48.506;-2.750;2023-01-08T13:09:52;9.40;72.70
75621;DHT22;64574;48.506;-2.750;2023-01-08T13:12:31;9.40;72.90
75621;DHT22;64574;48.506;-2.750;2023-01-08T13:14:58;9.40;73.00
75621;DHT22;64574;48.506;-2.750;2023-01-08T13:17:23;9.40;73.00
75621;DHT22;64574;48.506;-2.750;2023-01-08T13:20:00;9.40;73.10
75621;DHT22;64574;48.506;-2.750;2023-01-08T13:22:31;9.40;72.80
75621;DHT22;64574;48.506;-2.750;2023-01-08T13:27:40;9.30;72.70
75621;DHT22;64574;48.506;-2.750;2023-01-08T13:30:41;9.30;71.90
75621;DHT22;64574;48.506;-2.750;2023-01-08T13:33:27;9.30;72.20
75621;DHT22;64574;48.506;-2.750;2023-01-08T13:38:41;9.30;72.20
75621;DHT22;64574;48.506;-2.750;2023-01-08T13:41:29;9.30;72.50
75621;DHT22;64574;48.506;-2.750;2023-01-08T13:47:35;9.40;72.90
75621;DHT22;64574;48.506;-2.750;2023-01-08T13:49:43;9.40;71.50
75621;DHT22;64574;48.506;-2.750;2023-01-08T13:52:33;9.40;71.50
75621;DHT22;64574;48.506;-2.750;2023-01-08T13:55:04;9.20;70.20
75621;DHT22;64574;48.506;-2.750;2023-01-08T13:57:41;9.00;70.40
75621;DHT22;64574;48.506;-2.750;2023-01-08T14:00:16;8.80;71.30
75621;DHT22;64574;48.506;-2.750;2023-01-08T14:02:44;8.70;71.10
75621;DHT22;64574;48.506;-2.750;2023-01-08T14:05:29;8.80;69.80
75621;DHT22;64574;48.506;-2.750;2023-01-08T14:07:56;8.80;69.40
75621;DHT22;64574;48.506;-2.750;2023-01-08T14:10:23;9.00;69.90
75621;DHT22;64574;48.506;-2.750;2023-01-08T14:12:50;9.00;69.60
75621;DHT22;64574;48.506;-2.750;2023-01-08T14:15:27;9.00;70.00
75621;DHT22;64574;48.506;-2.750;2023-01-08T14:17:54;9.00;69.70
75621;DHT22;64574;48.506;-2.750;2023-01-08T14:20:35;8.90;70.20
75621;DHT22;64574;48.506;-2.750;2023-01-08T14:23:02;8.90;69.80
75621;DHT22;64574;48.506;-2.750;2023-01-08T14:25:32;8.90;69.00
75621;DHT22;64574;48.506;-2.750;2023-01-08T14:28:01;8.90;69.50
75621;DHT22;64574;48.506;-2.750;2023-01-08T14:30:28;8.90;69.50
75621;DHT22;64574;48.506;-2.750;2023-01-08T14:32:55;8.80;69.00
75621;DHT22;64574;48.506;-2.750;2023-01-08T14:35:31;8.80;69.30
75621;DHT22;64574;48.506;-2.750;2023-01-08T14:37:59;8.80;69.40
75621;DHT22;64574;48.506;-2.750;2023-01-08T14:40:39;8.80;69.50
75621;DHT22;64574;48.506;-2.750;2023-01-08T14:43:11;8.70;70.00
75621;DHT22;64574;48.506;-2.750;2023-01-08T14:45:43;8.70;69.80
75621;DHT22;64574;48.506;-2.750;2023-01-08T14:48:18;8.70;69.50
75621;DHT22;64574;48.506;-2.750;2023-01-08T14:51:08;8.80;69.80
75621;DHT22;64574;48.506;-2.750;2023-01-08T14:53:43;8.80;69.50
75621;DHT22;64574;48.506;-2.750;2023-01-08T14:56:23;8.80;69.70
75621;DHT22;64574;48.506;-2.750;2023-01-08T14:58:49;8.80;69.90
75621;DHT22;64574;48.506;-2.750;2023-01-08T15:01:25;8.80;69.60
75621;DHT22;64574;48.506;-2.750;2023-01-08T15:04:03;8.80;69.80
75621;DHT22;64574;48.506;-2.750;2023-01-08T15:06:30;8.70;70.00
75621;DHT22;64574;48.506;-2.750;2023-01-08T15:08:57;8.70;69.90
75621;DHT22;64574;48.506;-2.750;2023-01-08T15:11:31;8.80;69.90
75621;DHT22;64574;48.506;-2.750;2023-01-08T15:14:12;8.70;70.50
75621;DHT22;64574;48.506;-2.750;2023-01-08T15:16:39;8.70;70.90
75621;DHT22;64574;48.506;-2.750;2023-01-08T15:19:16;8.70;70.50
75621;DHT22;64574;48.506;-2.750;2023-01-08T15:21:53;8.60;70.40
75621;DHT22;64574;48.506;-2.750;2023-01-08T15:24:34;8.60;70.70
75621;DHT22;64574;48.506;-2.750;2023-01-08T15:27:01;8.60;70.50
75621;DHT22;64574;48.506;-2.750;2023-01-08T15:29:47;8.60;70.90
75621;DHT22;64574;48.506;-2.750;2023-01-08T15:34:39;8.60;71.10
75621;DHT22;64574;48.506;-2.750;2023-01-08T15:37:04;8.60;71.20
75621;DHT22;64574;48.506;-2.750;2023-01-08T15:39:30;8.60;71.30
75621;DHT22;64574;48.506;-2.750;2023-01-08T15:41:59;8.80;71.00
75621;DHT22;64574;48.506;-2.750;2023-01-08T15:44:45;8.80;71.10
75621;DHT22;64574;48.506;-2.750;2023-01-08T15:47:11;8.70;71.00
75621;DHT22;64574;48.506;-2.750;2023-01-08T15:49:36;8.70;71.00
75621;DHT22;64574;48.506;-2.750;2023-01-08T15:52:02;8.60;71.40
75621;DHT22;64574;48.506;-2.750;2023-01-08T15:54:28;8.60;71.40
75621;DHT22;64574;48.506;-2.750;2023-01-08T15:56:53;8.60;71.40
75621;DHT22;64574;48.506;-2.750;2023-01-08T15:59:19;8.60;71.20
75621;DHT22;64574;48.506;-2.750;2023-01-08T16:01:44;8.60;71.40
75621;DHT22;64574;48.506;-2.750;2023-01-08T16:04:10;8.50;71.40
75621;DHT22;64574;48.506;-2.750;2023-01-08T16:06:36;8.40;71.70
75621;DHT22;64574;48.506;-2.750;2023-01-08T16:09:02;8.50;71.70
75621;DHT22;64574;48.506;-2.750;2023-01-08T16:11:27;8.50;71.60
75621;DHT22;64574;48.506;-2.750;2023-01-08T16:13:53;8.50;71.60
75621;DHT22;64574;48.506;-2.750;2023-01-08T16:16:19;8.30;72.00
75621;DHT22;64574;48.506;-2.750;2023-01-08T16:18:45;8.30;72.10
75621;DHT22;64574;48.506;-2.750;2023-01-08T16:21:11;8.30;72.30
75621;DHT22;64574;48.506;-2.750;2023-01-08T16:23:38;8.30;72.40
75621;DHT22;64574;48.506;-2.750;2023-01-08T16:26:12;8.40;72.20
75621;DHT22;64574;48.506;-2.750;2023-01-08T16:28:38;8.30;72.50
75621;DHT22;64574;48.506;-2.750;2023-01-08T16:31:05;8.30;72.60
75621;DHT22;64574;48.506;-2.750;2023-01-08T16:33:31;8.30;72.70
75621;DHT22;64574;48.506;-2.750;2023-01-08T16:36:05;8.20;72.80
75621;DHT22;64574;48.506;-2.750;2023-01-08T16:38:31;8.20;73.00
75621;DHT22;64574;48.506;-2.750;2023-01-08T16:40:57;8.20;72.90
75621;DHT22;64574;48.506;-2.750;2023-01-08T16:43:27;8.10;72.60
75621;DHT22;64574;48.506;-2.750;2023-01-08T16:45:54;8.20;72.60
75621;DHT22;64574;48.506;-2.750;2023-01-08T16:48:21;8.10;72.80
75621;DHT22;64574;48.506;-2.750;2023-01-08T16:50:47;8.10;72.70
75621;DHT22;64574;48.506;-2.750;2023-01-08T16:53:14;8.10;73.10
75621;DHT22;64574;48.506;-2.750;2023-01-08T16:55:42;8.10;72.80
75621;DHT22;64574;48.506;-2.750;2023-01-08T16:58:09;8.10;72.90